createdAt,value
2022-10-18T00:02:31.432Z,101126.25
2022-10-18T00:07:33.316Z,101127.94
2022-10-18T00:12:36.065Z,101141.28
2022-10-18T00:17:38.607Z,101139.94
2022-10-18T00:22:41.200Z,101141.63
2022-10-18T00:27:42.733Z,101143.28
2022-10-18T00:32:44.235Z,101148.53
2022-10-18T00:37:45.742Z,101146.00
2022-10-18T00:42:47.240Z,101142.09
2022-10-18T00:47:53.772Z,101140.94
2022-10-18T00:53:00.326Z,101132.59
2022-10-18T00:58:02.261Z,101133.66
2022-10-18T01:03:03.768Z,101138.00
2022-10-18T01:08:35.175Z,101129.38
2022-10-18T01:14:02.631Z,101133.06
2022-10-18T01:19:17.928Z,101139.63
2022-10-18T01:24:41.079Z,101144.75
2022-10-18T01:30:00.929Z,101142.00
2022-10-18T01:35:07.020Z,101133.09
2022-10-18T01:40:09.515Z,101129.84
2022-10-18T01:45:11.722Z,101137.78
2022-10-18T01:50:13.554Z,101156.84
2022-10-18T01:55:15.356Z,101156.13
2022-10-18T02:00:19.554Z,101145.25
2022-10-18T02:05:30.836Z,101149.44
2022-10-18T02:10:41.890Z,101145.31
2022-10-18T02:15:47.463Z,101136.88
2022-10-18T02:20:49.187Z,101132.84
2022-10-18T02:25:51.020Z,101138.56
2022-10-18T02:31:14.210Z,101138.09
2022-10-18T02:36:22.594Z,101142.47
2022-10-18T02:41:26.017Z,101150.09
2022-10-18T02:51:34.159Z,101147.06
2022-10-18T02:56:36.123Z,101141.50
2022-10-18T03:01:37.687Z,101144.72
2022-10-18T03:06:39.201Z,101149.97
2022-10-18T03:11:40.693Z,101151.19
2022-10-18T03:16:42.216Z,101165.28
2022-10-18T03:21:43.719Z,101152.81
2022-10-18T03:26:45.195Z,101154.50
2022-10-18T03:31:46.765Z,101152.50
2022-10-18T03:36:48.280Z,101158.78
2022-10-18T03:41:50.538Z,101161.22
2022-10-18T03:46:52.058Z,101155.06
2022-10-18T03:51:53.620Z,101155.44
2022-10-18T03:56:55.241Z,101151.81
2022-10-18T04:01:56.925Z,101153.16
2022-10-18T04:06:58.461Z,101160.88
2022-10-18T04:11:59.996Z,101150.78
2022-10-18T04:17:01.520Z,101155.63
2022-10-18T04:22:03.087Z,101153.31
2022-10-18T04:27:05.356Z,101150.97
2022-10-18T04:32:06.854Z,101146.13
2022-10-18T04:37:08.368Z,101148.66
2022-10-18T04:42:09.881Z,101148.88
2022-10-18T04:47:11.414Z,101160.00
2022-10-18T04:52:13.384Z,101160.34
2022-10-18T04:57:14.940Z,101161.84
2022-10-18T05:02:16.458Z,101157.22
2022-10-18T05:07:18.027Z,101162.34
2022-10-18T05:12:19.535Z,101148.38
2022-10-18T05:17:21.083Z,101148.38
2022-10-18T05:22:22.591Z,101151.22
2022-10-18T05:27:24.079Z,101146.91
2022-10-18T05:32:25.614Z,101144.41
2022-10-18T05:37:28.442Z,101138.78
2022-10-18T05:42:30.317Z,101144.56
2022-10-18T05:47:32.229Z,101140.63
2022-10-18T05:52:34.150Z,101142.75
2022-10-18T05:57:35.919Z,101128.97
2022-10-18T06:02:37.503Z,101104.41
2022-10-18T06:07:38.993Z,101091.28
2022-10-18T06:12:40.547Z,101095.25
2022-10-18T06:17:42.084Z,101104.06
2022-10-18T06:22:43.577Z,101107.56
2022-10-18T06:27:45.086Z,101102.28
2022-10-18T06:32:46.702Z,101087.13
2022-10-18T06:37:48.354Z,101080.88
2022-10-18T06:43:00.011Z,101113.44
2022-10-18T06:48:07.610Z,101118.81
2022-10-18T06:53:09.745Z,101118.34
2022-10-18T06:58:11.256Z,101124.38
2022-10-18T07:03:12.861Z,101116.47
2022-10-18T07:08:14.510Z,101122.28
2022-10-18T07:13:33.089Z,101107.88
2022-10-18T07:18:36.192Z,101112.94
2022-10-18T07:23:39.812Z,101113.97
2022-10-18T07:28:42.312Z,101122.44
2022-10-18T07:33:43.890Z,101127.50
2022-10-18T07:38:45.386Z,101117.03
2022-10-18T07:43:48.964Z,101109.94
2022-10-18T07:48:50.819Z,101119.78
2022-10-18T07:53:52.436Z,101115.03
2022-10-18T07:58:55.961Z,101116.53
2022-10-18T08:04:03.253Z,101106.94
2022-10-18T08:09:07.757Z,101095.13
2022-10-18T08:14:09.245Z,101107.13
2022-10-18T08:19:10.785Z,101112.84
2022-10-18T08:24:12.293Z,101099.19
2022-10-18T08:29:31.871Z,101077.94
2022-10-18T08:34:34.875Z,101068.81
2022-10-18T08:39:36.413Z,101063.94
2022-10-18T08:44:45.785Z,101044.50
2022-10-18T08:49:52.364Z,101035.72
2022-10-18T08:55:08.057Z,101038.28
2022-10-18T09:00:23.336Z,101046.19
2022-10-18T09:05:43.212Z,101039.78
2022-10-18T09:11:07.802Z,101030.50
2022-10-18T09:16:20.358Z,101025.28
2022-10-18T09:21:36.912Z,101027.25
2022-10-18T09:26:47.190Z,101007.84
2022-10-18T09:31:57.948Z,101008.03
2022-10-18T09:37:00.018Z,100998.22
2022-10-18T09:42:37.097Z,100999.56
2022-10-18T09:47:42.550Z,100991.09
2022-10-18T09:52:51.727Z,100992.09
2022-10-18T09:58:02.625Z,100981.28
2022-10-18T10:03:10.963Z,100971.97
2022-10-18T10:08:12.659Z,100964.34
2022-10-18T10:13:27.954Z,100958.22
2022-10-18T10:18:31.291Z,100949.59
2022-10-18T10:23:47.212Z,100949.06
2022-10-18T10:28:49.970Z,100944.66
2022-10-18T10:34:01.771Z,100985.22
2022-10-18T10:39:09.892Z,101011.28
2022-10-18T10:44:19.809Z,101018.38
2022-10-18T10:49:40.752Z,101034.81
2022-10-18T10:54:50.294Z,101082.81
2022-10-18T10:59:55.711Z,101075.75
2022-10-18T11:05:15.386Z,101065.47
2022-10-18T11:10:23.106Z,101055.31
2022-10-18T11:15:43.748Z,101049.25
2022-10-18T11:21:11.798Z,101057.69
2022-10-18T11:26:13.215Z,101070.84
2022-10-18T11:31:24.804Z,101058.56
2022-10-18T11:36:55.007Z,101072.72
2022-10-18T11:42:21.312Z,101080.84
2022-10-18T11:47:25.969Z,101091.47
2022-10-18T11:52:36.409Z,101069.84
2022-10-18T11:57:43.768Z,101093.50
2022-10-18T12:03:15.642Z,101096.53
2022-10-18T12:08:25.433Z,101101.44
2022-10-18T12:13:36.587Z,101092.00
2022-10-18T12:18:48.841Z,101101.94
2022-10-18T12:24:03.405Z,101095.22
2022-10-18T12:29:22.027Z,101106.38
2022-10-18T12:34:23.775Z,101116.28
2022-10-18T12:39:38.778Z,101109.03
2022-10-18T12:45:01.723Z,101116.00
2022-10-18T12:50:07.630Z,101098.53
2022-10-18T12:55:16.949Z,101109.88
2022-10-18T13:00:31.374Z,101118.66
2022-10-18T13:06:06.416Z,101121.53
2022-10-18T13:11:08.248Z,101134.03
2022-10-18T13:16:14.836Z,101117.00
2022-10-18T13:21:34.553Z,101136.44
2022-10-18T13:26:42.825Z,101131.88
2022-10-18T13:32:06.114Z,101136.09
2022-10-18T13:37:10.590Z,101138.94
2022-10-18T13:42:15.150Z,101131.34
2022-10-18T13:47:33.787Z,101130.69
2022-10-18T13:53:17.340Z,101120.53
2022-10-18T13:58:48.771Z,101117.50
2022-10-18T14:04:22.112Z,101121.53
2022-10-18T14:09:40.242Z,101118.84
2022-10-18T14:15:09.091Z,101114.13
2022-10-18T14:20:18.843Z,101112.59
2022-10-18T14:25:25.669Z,101113.09
2022-10-18T14:30:27.171Z,101116.13
2022-10-18T14:35:35.147Z,101125.25
2022-10-18T14:40:39.143Z,101126.75
2022-10-18T14:45:41.528Z,101151.78
2022-10-18T14:50:44.888Z,101144.22
2022-10-18T14:55:56.652Z,101158.72
2022-10-18T15:00:59.099Z,101153.66
2022-10-18T15:06:05.378Z,101154.50
2022-10-18T15:11:10.510Z,101144.19
2022-10-18T15:16:17.673Z,101143.53
2022-10-18T15:21:23.781Z,101141.66
2022-10-18T15:26:29.434Z,101144.88
2022-10-18T15:31:35.658Z,101138.44
2022-10-18T15:36:37.468Z,101148.75
2022-10-18T15:41:41.666Z,101151.31
2022-10-18T15:46:43.994Z,101158.69
2022-10-18T15:51:49.904Z,101166.13
2022-10-18T15:56:51.597Z,101168.88
2022-10-18T16:01:53.425Z,101171.25
2022-10-18T16:06:56.421Z,101174.25
2022-10-18T16:11:58.500Z,101175.25
2022-10-18T16:17:03.379Z,101178.44
2022-10-18T16:22:07.155Z,101196.81
2022-10-18T16:27:09.737Z,101194.28
2022-10-18T16:32:11.261Z,101198.84
2022-10-18T16:37:12.737Z,101188.72
2022-10-18T16:42:14.240Z,101203.53
2022-10-18T16:47:16.415Z,101208.44
2022-10-18T16:52:17.914Z,101198.47
2022-10-18T16:57:19.485Z,101205.56
2022-10-18T17:02:20.985Z,101208.47
2022-10-18T17:07:24.796Z,101203.38
2022-10-18T17:12:26.272Z,101207.88
2022-10-18T17:17:27.851Z,101208.44
2022-10-18T17:22:29.349Z,101211.28
2022-10-18T17:27:31.266Z,101214.94
2022-10-18T17:32:33.261Z,101214.88
2022-10-18T17:37:35.308Z,101224.78
2022-10-18T17:42:37.162Z,101219.66
2022-10-18T17:47:38.803Z,101212.19
2022-10-18T17:52:47.208Z,101214.94
2022-10-18T17:57:48.759Z,101215.59
2022-10-18T18:02:50.288Z,101217.22
2022-10-18T18:07:51.893Z,101220.28
2022-10-18T18:12:53.355Z,101217.22
2022-10-18T18:17:58.336Z,101222.97
2022-10-18T18:23:00.173Z,101217.41
2022-10-18T18:28:06.678Z,101221.63
2022-10-18T18:33:09.080Z,101225.03
2022-10-18T18:38:10.557Z,101226.25
2022-10-18T18:43:23.213Z,101227.59
2022-10-18T18:48:26.549Z,101229.59
2022-10-18T18:53:29.756Z,101224.59
2022-10-18T18:58:31.858Z,101219.28
2022-10-18T19:03:33.607Z,101223.97
2022-10-18T19:08:36.753Z,101221.63
2022-10-18T19:13:38.239Z,101220.91
2022-10-18T19:18:39.756Z,101226.66
2022-10-18T19:23:41.236Z,101230.75
2022-10-18T19:28:42.862Z,101227.28
2022-10-18T19:33:55.616Z,101238.44
2022-10-18T19:39:01.085Z,101233.03
2022-10-18T19:44:02.750Z,101238.69
2022-10-18T19:49:04.398Z,101241.56
2022-10-18T19:54:05.978Z,101243.66
2022-10-18T19:59:08.060Z,101241.28
2022-10-18T20:04:10.387Z,101236.94
2022-10-18T20:09:16.082Z,101244.81
2022-10-18T20:14:21.200Z,101252.22
2022-10-18T20:19:22.826Z,101242.22
2022-10-18T20:24:24.353Z,101231.72
2022-10-18T20:29:25.899Z,101243.31
2022-10-18T20:34:28.525Z,101234.66
2022-10-18T20:39:30.057Z,101243.22
2022-10-18T20:44:33.792Z,101239.53
2022-10-18T20:49:35.295Z,101246.22
2022-10-18T20:54:36.873Z,101254.91
2022-10-18T20:59:38.473Z,101257.31
2022-10-18T21:04:42.193Z,101254.91
2022-10-18T21:09:44.040Z,101247.28
2022-10-18T21:14:45.583Z,101250.63
2022-10-18T21:19:47.124Z,101252.75
2022-10-18T21:24:50.593Z,101245.91
2022-10-18T21:29:52.138Z,101246.06
2022-10-18T21:34:53.666Z,101242.97
2022-10-18T21:39:55.260Z,101246.38
2022-10-18T21:44:56.868Z,101254.00
2022-10-18T21:49:58.582Z,101258.16
2022-10-18T21:55:00.190Z,101255.84
2022-10-18T22:00:02.493Z,101253.16
2022-10-18T22:05:08.208Z,101259.59
2022-10-18T22:10:12.732Z,101254.09
2022-10-18T22:15:14.352Z,101245.91
2022-10-18T22:20:16.077Z,101236.28
2022-10-18T22:25:17.720Z,101238.06
2022-10-18T22:30:19.314Z,101238.28
2022-10-18T22:35:20.817Z,101240.50
2022-10-18T22:40:22.324Z,101241.03
2022-10-18T22:45:23.847Z,101240.22
2022-10-18T22:50:25.381Z,101244.88
2022-10-18T22:55:26.836Z,101233.44
2022-10-18T23:00:28.367Z,101231.88
2022-10-18T23:05:29.934Z,101235.88
2022-10-18T23:10:31.536Z,101237.38
2022-10-18T23:15:33.607Z,101227.75
2022-10-18T23:20:35.344Z,101237.22
2022-10-18T23:25:37.421Z,101240.75
2022-10-18T23:30:39.010Z,101246.53
2022-10-18T23:35:40.512Z,101246.91
2022-10-18T23:40:42.024Z,101248.91
2022-10-18T23:45:44.408Z,101252.66
2022-10-18T23:50:45.939Z,101243.53
2022-10-18T23:56:01.070Z,101240.31
